createdAt,value
2019-02-14T00:00:25.240Z,101524.00
2019-02-14T00:02:54.638Z,101514.00
2019-02-14T00:05:23.746Z,101527.00
2019-02-14T00:07:52.873Z,101526.00
2019-02-14T00:10:22.216Z,101518.00
2019-02-14T00:12:51.585Z,101529.00
2019-02-14T00:15:20.589Z,101528.00
2019-02-14T00:17:49.729Z,101519.00
2019-02-14T00:20:19.106Z,101526.00
2019-02-14T00:22:48.233Z,101523.00
2019-02-14T00:25:17.586Z,101524.00
2019-02-14T00:27:46.970Z,101531.00
2019-02-14T00:30:16.049Z,101530.00
2019-02-14T00:32:45.382Z,101532.00
2019-02-14T00:35:14.493Z,101536.00
2019-02-14T00:37:43.873Z,101542.00
2019-02-14T00:40:13.033Z,101537.00
2019-02-14T00:42:42.392Z,101538.00
2019-02-14T00:45:11.605Z,101530.00
2019-02-14T00:47:40.721Z,101535.00
2019-02-14T00:50:10.392Z,101537.00
2019-02-14T00:52:39.743Z,101547.00
2019-02-14T00:55:08.845Z,101538.00
2019-02-14T00:57:38.186Z,101529.00
2019-02-14T01:00:10.422Z,101528.00
2019-02-14T01:02:39.493Z,101528.00
2019-02-14T01:05:08.783Z,101522.00
2019-02-14T01:07:38.136Z,101533.00
2019-02-14T01:10:07.385Z,101531.00
2019-02-14T01:12:36.485Z,101530.00
2019-02-14T01:15:09.630Z,101521.00
2019-02-14T01:17:39.036Z,101519.00
2019-02-14T01:20:08.675Z,101521.00
2019-02-14T01:22:37.777Z,101518.00
2019-02-14T01:25:07.086Z,101521.00
2019-02-14T01:27:36.287Z,101531.00
2019-02-14T01:30:08.558Z,101546.00
2019-02-14T01:32:37.805Z,101548.00
2019-02-14T01:35:09.457Z,101547.00
2019-02-14T01:37:38.918Z,101548.00
2019-02-14T01:40:08.489Z,101541.00
2019-02-14T01:42:37.610Z,101542.00
2019-02-14T01:45:10.984Z,101543.00
2019-02-14T01:47:40.075Z,101550.00
2019-02-14T01:50:11.679Z,101548.00
2019-02-14T01:52:40.794Z,101550.00
2019-02-14T01:55:09.994Z,101562.00
2019-02-14T01:57:39.062Z,101571.00
2019-02-14T02:00:12.160Z,101564.00
2019-02-14T02:02:41.672Z,101561.00
2019-02-14T02:05:11.016Z,101566.00
2019-02-14T02:07:40.698Z,101561.00
2019-02-14T02:10:11.752Z,101558.00
2019-02-14T02:12:40.844Z,101549.00
2019-02-14T02:15:13.894Z,101546.00
2019-02-14T02:17:43.231Z,101549.00
2019-02-14T02:20:12.895Z,101543.00
2019-02-14T02:22:42.002Z,101532.00
2019-02-14T02:25:12.092Z,101540.00
2019-02-14T02:27:41.174Z,101523.00
2019-02-14T02:30:14.482Z,101530.00
2019-02-14T02:32:43.582Z,101530.00
2019-02-14T02:35:12.948Z,101524.00
2019-02-14T02:37:42.307Z,101521.00
2019-02-14T02:40:11.393Z,101521.00
2019-02-14T02:42:40.773Z,101524.00
2019-02-14T02:45:11.726Z,101530.00
2019-02-14T02:47:41.079Z,101537.00
2019-02-14T02:50:13.147Z,101536.00
2019-02-14T02:52:42.480Z,101521.00
2019-02-14T02:55:11.560Z,101524.00
2019-02-14T02:57:40.922Z,101529.00
2019-02-14T03:00:19.037Z,101540.00
2019-02-14T03:02:48.393Z,101542.00
2019-02-14T03:05:17.481Z,101553.00
2019-02-14T03:07:46.836Z,101551.00
2019-02-14T03:10:16.027Z,101555.00
2019-02-14T03:12:45.143Z,101549.00
2019-02-14T03:15:14.993Z,101559.00
2019-02-14T03:17:44.085Z,101543.00
2019-02-14T03:20:13.907Z,101538.00
2019-02-14T03:22:43.247Z,101536.00
2019-02-14T03:25:17.527Z,101547.00
2019-02-14T03:27:46.898Z,101540.00
2019-02-14T03:30:16.653Z,101540.00
2019-02-14T03:32:46.027Z,101535.00
2019-02-14T03:35:15.138Z,101534.00
2019-02-14T03:37:44.507Z,101550.00
2019-02-14T03:40:15.010Z,101544.00
2019-02-14T03:42:44.091Z,101547.00
2019-02-14T03:45:17.137Z,101558.00
2019-02-14T03:47:46.475Z,101555.00
2019-02-14T03:50:15.620Z,101566.00
2019-02-14T03:52:44.716Z,101574.00
2019-02-14T03:55:14.062Z,101567.00
2019-02-14T03:57:43.455Z,101558.00
2019-02-14T04:00:17.492Z,101547.00
2019-02-14T04:02:46.840Z,101549.00
2019-02-14T04:05:16.194Z,101560.00
2019-02-14T04:07:45.326Z,101563.00
2019-02-14T04:10:15.508Z,101553.00
2019-02-14T04:12:44.849Z,101564.00
2019-02-14T04:15:17.836Z,101566.00
2019-02-14T04:17:47.507Z,101571.00
2019-02-14T04:20:16.869Z,101578.00
2019-02-14T04:22:46.201Z,101595.00
2019-02-14T04:25:15.592Z,101586.00
2019-02-14T04:27:44.980Z,101587.00
2019-02-14T04:30:14.994Z,101590.00
2019-02-14T04:32:44.659Z,101592.00
2019-02-14T04:35:13.801Z,101594.00
2019-02-14T04:37:42.905Z,101589.00
2019-02-14T04:40:13.072Z,101595.00
2019-02-14T04:42:42.163Z,101583.00
2019-02-14T04:45:13.220Z,101567.00
2019-02-14T04:47:42.885Z,101574.00
2019-02-14T04:50:12.269Z,101577.00
2019-02-14T04:52:41.639Z,101577.00
2019-02-14T04:55:11.390Z,101576.00
2019-02-14T04:57:40.770Z,101572.00
2019-02-14T05:00:15.482Z,101575.00
2019-02-14T05:02:44.585Z,101569.00
2019-02-14T05:05:13.945Z,101570.00
2019-02-14T05:07:43.326Z,101579.00
2019-02-14T05:10:12.681Z,101596.00
2019-02-14T05:12:42.051Z,101605.00
2019-02-14T05:15:12.155Z,101619.00
2019-02-14T05:17:41.515Z,101602.00
2019-02-14T05:20:11.765Z,101587.00
2019-02-14T05:22:40.844Z,101599.00
2019-02-14T05:25:10.605Z,101601.00
2019-02-14T05:27:40.015Z,101588.00
2019-02-14T05:30:12.204Z,101595.00
2019-02-14T05:32:41.321Z,101595.00
2019-02-14T05:35:10.463Z,101599.00
2019-02-14T05:37:39.615Z,101574.00
2019-02-14T05:40:10.434Z,101596.00
2019-02-14T05:42:39.674Z,101590.00
2019-02-14T05:45:14.204Z,101575.00
2019-02-14T05:47:43.367Z,101568.00
2019-02-14T05:50:14.471Z,101585.00
2019-02-14T05:52:43.638Z,101590.00
2019-02-14T05:55:13.067Z,101588.00
2019-02-14T05:57:42.544Z,101583.00
2019-02-14T06:00:19.254Z,101593.00
2019-02-14T06:02:48.421Z,101608.00
2019-02-14T06:05:17.589Z,101603.00
2019-02-14T06:07:46.957Z,101593.00
2019-02-14T06:10:16.105Z,101599.00
2019-02-14T06:12:45.288Z,101607.00
2019-02-14T06:15:14.921Z,101606.00
2019-02-14T06:17:44.122Z,101615.00
2019-02-14T06:20:14.045Z,101617.00
2019-02-14T06:22:43.479Z,101604.00
2019-02-14T06:25:13.890Z,101601.00
2019-02-14T06:27:43.254Z,101583.00
2019-02-14T06:30:16.642Z,101576.00
2019-02-14T06:32:46.001Z,101586.00
2019-02-14T06:35:15.213Z,101603.00
2019-02-14T06:37:44.481Z,101617.00
2019-02-14T06:40:14.842Z,101624.00
2019-02-14T06:42:44.224Z,101609.00
2019-02-14T06:45:19.392Z,101609.00
2019-02-14T06:47:48.548Z,101602.00
2019-02-14T06:50:17.688Z,101589.00
2019-02-14T06:52:46.829Z,101591.00
2019-02-14T06:55:16.325Z,101613.00
2019-02-14T06:57:45.727Z,101621.00
2019-02-14T07:00:16.239Z,101626.00
2019-02-14T07:02:45.438Z,101626.00
2019-02-14T07:05:14.850Z,101607.00
2019-02-14T07:07:44.375Z,101615.00
2019-02-14T07:10:13.510Z,101601.00
2019-02-14T07:12:42.870Z,101606.00
2019-02-14T07:15:16.053Z,101613.00
2019-02-14T07:17:45.199Z,101630.00
2019-02-14T07:20:16.802Z,101632.00
2019-02-14T07:22:45.946Z,101622.00
2019-02-14T07:25:15.126Z,101618.00
2019-02-14T07:27:44.720Z,101629.00
2019-02-14T07:30:21.392Z,101641.00
2019-02-14T07:32:50.777Z,101645.00
2019-02-14T07:35:20.045Z,101653.00
2019-02-14T07:37:49.438Z,101652.00
2019-02-14T07:40:18.804Z,101663.00
2019-02-14T07:42:47.975Z,101663.00
2019-02-14T07:45:17.736Z,101659.00
2019-02-14T07:47:47.201Z,101665.00
2019-02-14T07:50:16.386Z,101680.00
2019-02-14T07:52:45.541Z,101673.00
2019-02-14T07:55:15.742Z,101679.00
2019-02-14T07:57:45.097Z,101688.00
2019-02-14T08:00:18.309Z,101699.00
2019-02-14T08:02:47.933Z,101700.00
2019-02-14T08:05:17.380Z,101693.00
2019-02-14T08:07:46.536Z,101698.00
2019-02-14T08:10:18.785Z,101700.00
2019-02-14T08:12:49.829Z,101699.00
2019-02-14T08:15:19.247Z,101698.00
2019-02-14T08:17:48.649Z,101693.00
2019-02-14T08:20:19.343Z,101709.00
2019-02-14T08:22:49.316Z,101700.00
2019-02-14T08:25:18.743Z,101697.00
2019-02-14T08:27:48.151Z,101684.00
2019-02-14T08:30:20.046Z,101687.00
2019-02-14T08:32:49.180Z,101688.00
2019-02-14T08:35:18.612Z,101689.00
2019-02-14T08:37:48.139Z,101685.00
2019-02-14T08:40:23.661Z,101689.00
2019-02-14T08:42:53.509Z,101685.00
2019-02-14T08:45:23.006Z,101688.00
2019-02-14T08:47:52.376Z,101682.00
2019-02-14T08:50:21.594Z,101682.00
2019-02-14T08:52:51.003Z,101686.00
2019-02-14T08:55:20.311Z,101695.00
2019-02-14T08:57:49.440Z,101695.00
2019-02-14T09:00:18.689Z,101692.00
2019-02-14T09:02:47.874Z,101696.00
2019-02-14T09:05:17.321Z,101690.00
2019-02-14T09:07:54.302Z,101685.00
2019-02-14T09:10:18.627Z,101685.00
2019-02-14T09:12:47.749Z,101663.00
2019-02-14T09:15:17.288Z,101659.00
2019-02-14T09:17:46.673Z,101667.00
2019-02-14T09:20:22.446Z,101672.00
2019-02-14T09:22:51.607Z,101669.00
2019-02-14T09:25:21.041Z,101663.00
2019-02-14T09:27:50.173Z,101657.00
2019-02-14T09:30:19.674Z,101658.00
2019-02-14T09:32:49.309Z,101669.00
2019-02-14T09:35:18.450Z,101673.00
2019-02-14T09:37:47.825Z,101664.00
2019-02-14T09:40:20.216Z,101647.00
2019-02-14T09:42:49.445Z,101644.00
2019-02-14T09:45:18.601Z,101648.00
2019-02-14T09:47:47.755Z,101651.00
2019-02-14T09:50:16.936Z,101646.00
2019-02-14T09:52:46.965Z,101653.00
2019-02-14T09:55:16.384Z,101664.00
2019-02-14T09:57:45.807Z,101656.00
2019-02-14T10:00:16.585Z,101657.00
2019-02-14T10:02:45.956Z,101650.00
2019-02-14T10:05:15.459Z,101651.00
2019-02-14T10:07:44.840Z,101656.00
2019-02-14T10:10:17.305Z,101656.00
2019-02-14T10:12:46.725Z,101660.00
2019-02-14T10:15:16.352Z,101650.00
2019-02-14T10:17:45.843Z,101643.00
2019-02-14T10:20:16.989Z,101639.00
2019-02-14T10:22:46.405Z,101633.00
2019-02-14T10:25:15.635Z,101633.00
2019-02-14T10:27:45.094Z,101636.00
2019-02-14T10:30:24.321Z,101626.00
2019-02-14T10:32:53.488Z,101628.00
2019-02-14T10:35:22.625Z,101632.00
2019-02-14T10:37:51.857Z,101631.00
2019-02-14T10:40:21.235Z,101626.00
2019-02-14T10:42:50.834Z,101608.00
2019-02-14T10:45:23.678Z,101625.00
2019-02-14T10:47:53.135Z,101628.00
2019-02-14T10:50:22.351Z,101629.00
2019-02-14T10:52:51.797Z,101630.00
2019-02-14T10:55:21.050Z,101635.00
2019-02-14T10:57:50.314Z,101642.00
2019-02-14T11:00:28.503Z,101645.00
2019-02-14T11:02:57.913Z,101645.00
2019-02-14T11:05:27.286Z,101642.00
2019-02-14T11:07:56.524Z,101640.00
2019-02-14T11:10:25.723Z,101630.00
2019-02-14T11:12:55.308Z,101641.00
2019-02-14T11:15:25.180Z,101644.00
2019-02-14T11:17:54.690Z,101637.00
2019-02-14T11:20:24.213Z,101637.00
2019-02-14T11:22:53.526Z,101646.00
2019-02-14T11:25:36.716Z,101632.00
2019-02-14T11:28:06.074Z,101631.00
2019-02-14T11:30:35.461Z,101642.00
2019-02-14T11:33:04.627Z,101640.00
2019-02-14T11:35:34.332Z,101640.00
2019-02-14T11:38:03.733Z,101634.00
2019-02-14T11:40:33.142Z,101627.00
2019-02-14T11:43:02.586Z,101634.00
2019-02-14T11:45:31.984Z,101620.00
2019-02-14T11:48:01.347Z,101627.00
2019-02-14T11:50:30.749Z,101626.00
2019-02-14T11:53:00.125Z,101615.00
2019-02-14T11:55:29.379Z,101615.00
2019-02-14T11:57:58.748Z,101604.00
2019-02-14T12:00:28.056Z,101607.00
2019-02-14T12:02:57.438Z,101606.00
2019-02-14T12:05:26.729Z,101600.00
2019-02-14T12:07:55.859Z,101594.00
2019-02-14T12:10:25.244Z,101582.00
2019-02-14T12:12:54.729Z,101585.00
2019-02-14T12:15:23.935Z,101587.00
2019-02-14T12:17:53.329Z,101593.00
2019-02-14T12:20:22.679Z,101588.00
2019-02-14T12:22:51.830Z,101599.00
2019-02-14T12:25:31.727Z,101603.00
2019-02-14T12:28:01.089Z,101604.00
2019-02-14T12:30:30.303Z,101595.00
2019-02-14T12:32:59.975Z,101597.00
2019-02-14T12:35:29.442Z,101589.00
2019-02-14T12:37:58.688Z,101597.00
2019-02-14T12:40:28.120Z,101592.00
2019-02-14T12:42:57.314Z,101594.00
2019-02-14T12:45:27.077Z,101581.00
2019-02-14T12:47:56.494Z,101579.00
2019-02-14T12:50:25.855Z,101584.00
2019-02-14T12:52:54.996Z,101578.00
2019-02-14T12:55:24.130Z,101577.00
2019-02-14T12:57:53.330Z,101581.00
2019-02-14T13:00:24.311Z,101582.00
2019-02-14T13:02:53.678Z,101580.00
2019-02-14T13:05:22.827Z,101584.00
2019-02-14T13:07:52.185Z,101577.00
2019-02-14T13:10:21.396Z,101570.00
2019-02-14T13:12:50.500Z,101558.00
2019-02-14T13:15:25.628Z,101564.00
2019-02-14T13:17:55.049Z,101556.00
2019-02-14T13:20:24.283Z,101560.00
2019-02-14T13:22:53.413Z,101560.00
2019-02-14T13:25:22.559Z,101562.00
2019-02-14T13:27:51.788Z,101557.00
2019-02-14T13:30:25.518Z,101549.00
2019-02-14T13:32:54.878Z,101545.00
2019-02-14T13:35:24.093Z,101543.00
2019-02-14T13:37:53.224Z,101545.00
2019-02-14T13:40:22.621Z,101549.00
2019-02-14T13:42:51.788Z,101550.00
2019-02-14T13:45:25.627Z,101560.00
2019-02-14T13:47:55.032Z,101540.00
2019-02-14T13:50:24.231Z,101563.00
2019-02-14T13:52:53.605Z,101549.00
2019-02-14T13:55:23.005Z,101548.00
2019-02-14T13:57:52.207Z,101559.00
2019-02-14T14:00:27.587Z,101554.00
2019-02-14T14:02:56.858Z,101555.00
2019-02-14T14:05:26.241Z,101564.00
2019-02-14T14:07:55.616Z,101565.00
2019-02-14T14:10:25.093Z,101564.00
2019-02-14T14:12:54.546Z,101569.00
2019-02-14T14:15:23.816Z,101571.00
2019-02-14T14:17:52.982Z,101573.00
2019-02-14T14:20:22.329Z,101572.00
2019-02-14T14:22:51.461Z,101563.00
2019-02-14T14:25:20.588Z,101557.00
2019-02-14T14:27:50.073Z,101562.00
2019-02-14T14:30:19.538Z,101573.00
2019-02-14T14:32:48.972Z,101565.00
2019-02-14T14:35:18.364Z,101559.00
2019-02-14T14:37:47.757Z,101574.00
2019-02-14T14:40:20.214Z,101566.00
2019-02-14T14:42:53.145Z,101572.00
2019-02-14T14:45:23.933Z,101568.00
2019-02-14T14:47:53.092Z,101571.00
2019-02-14T14:50:22.445Z,101570.00
2019-02-14T14:52:51.617Z,101565.00
2019-02-14T14:55:20.733Z,101563.00
2019-02-14T14:57:50.127Z,101568.00
2019-02-14T15:00:19.293Z,101562.00
2019-02-14T15:02:48.454Z,101567.00
2019-02-14T15:05:17.590Z,101562.00
2019-02-14T15:07:46.995Z,101558.00
2019-02-14T15:10:16.200Z,101562.00
2019-02-14T15:12:45.361Z,101559.00
2019-02-14T15:15:14.709Z,101565.00
2019-02-14T15:17:43.940Z,101561.00
2019-02-14T15:20:13.272Z,101560.00
2019-02-14T15:22:42.765Z,101564.00
2019-02-14T15:25:11.894Z,101562.00
2019-02-14T15:27:41.275Z,101556.00
2019-02-14T15:30:10.732Z,101558.00
2019-02-14T15:32:40.128Z,101551.00
2019-02-14T15:35:10.096Z,101548.00
2019-02-14T15:37:39.499Z,101541.00
2019-02-14T15:40:10.037Z,101548.00
2019-02-14T15:42:39.479Z,101551.00
2019-02-14T15:45:09.003Z,101547.00
2019-02-14T15:47:38.209Z,101550.00
2019-02-14T15:50:09.175Z,101546.00
2019-02-14T15:52:38.613Z,101544.00
2019-02-14T15:55:08.724Z,101539.00
2019-02-14T15:57:39.987Z,101544.00
2019-02-14T16:00:12.103Z,101552.00
2019-02-14T16:02:41.484Z,101547.00
2019-02-14T16:05:10.854Z,101547.00
2019-02-14T16:07:41.472Z,101547.00
2019-02-14T16:10:18.249Z,101544.00
2019-02-14T16:12:44.012Z,101548.00
2019-02-14T16:15:12.975Z,101546.00
2019-02-14T16:17:42.399Z,101545.00
2019-02-14T16:20:11.814Z,101545.00
2019-02-14T16:22:42.404Z,101551.00
2019-02-14T16:25:12.100Z,101539.00
2019-02-14T16:27:41.454Z,101538.00
2019-02-14T16:30:12.280Z,101538.00
2019-02-14T16:32:41.501Z,101530.00
2019-02-14T16:35:10.962Z,101529.00
2019-02-14T16:37:40.370Z,101529.00
2019-02-14T16:40:10.746Z,101522.00
2019-02-14T16:42:39.901Z,101524.00
2019-02-14T16:45:09.229Z,101535.00
2019-02-14T16:47:38.619Z,101518.00
2019-02-14T16:50:09.490Z,101522.00
2019-02-14T16:52:38.877Z,101507.00
2019-02-14T16:55:08.119Z,101521.00
2019-02-14T16:57:37.237Z,101526.00
2019-02-14T17:00:09.568Z,101526.00
2019-02-14T17:02:38.920Z,101523.00
2019-02-14T17:05:08.540Z,101511.00
2019-02-14T17:07:38.009Z,101516.00
2019-02-14T17:10:11.792Z,101519.00
2019-02-14T17:12:41.187Z,101517.00
2019-02-14T17:15:11.318Z,101519.00
2019-02-14T17:17:40.456Z,101520.00
2019-02-14T17:20:11.598Z,101518.00
2019-02-14T17:22:40.771Z,101510.00
2019-02-14T17:25:10.680Z,101520.00
2019-02-14T17:27:40.076Z,101523.00
2019-02-14T17:30:09.843Z,101514.00
2019-02-14T17:32:38.998Z,101514.00
2019-02-14T17:35:09.118Z,101515.00
2019-02-14T17:37:38.515Z,101514.00
2019-02-14T17:40:09.424Z,101528.00
2019-02-14T17:42:38.879Z,101515.00
2019-02-14T17:45:09.592Z,101519.00
2019-02-14T17:47:39.031Z,101515.00
2019-02-14T17:50:09.120Z,101522.00
2019-02-14T17:52:39.513Z,101522.00
2019-02-14T17:55:11.315Z,101523.00
2019-02-14T17:57:40.470Z,101525.00
2019-02-14T18:00:12.166Z,101529.00
2019-02-14T18:02:41.717Z,101534.00
2019-02-14T18:05:11.214Z,101528.00
2019-02-14T18:07:40.585Z,101533.00
2019-02-14T18:10:11.972Z,101536.00
2019-02-14T18:12:41.488Z,101536.00
2019-02-14T18:15:13.984Z,101534.00
2019-02-14T18:17:43.151Z,101531.00
2019-02-14T18:20:12.683Z,101526.00
2019-02-14T18:22:42.135Z,101527.00
2019-02-14T18:25:12.542Z,101530.00
2019-02-14T18:27:42.290Z,101525.00
2019-02-14T18:30:12.483Z,101530.00
2019-02-14T18:32:42.139Z,101529.00
2019-02-14T18:35:12.286Z,101529.00
2019-02-14T18:37:41.789Z,101534.00
2019-02-14T18:40:12.491Z,101532.00
2019-02-14T18:42:45.546Z,101532.00
2019-02-14T18:45:14.781Z,101533.00
2019-02-14T18:47:43.954Z,101534.00
2019-02-14T18:50:14.603Z,101526.00
2019-02-14T18:52:44.035Z,101532.00
2019-02-14T18:55:13.539Z,101525.00
2019-02-14T18:57:42.685Z,101527.00
2019-02-14T19:00:17.650Z,101527.00
2019-02-14T19:02:46.868Z,101518.00
2019-02-14T19:05:16.266Z,101528.00
2019-02-14T19:07:45.696Z,101524.00
2019-02-14T19:10:17.843Z,101519.00
2019-02-14T19:12:47.305Z,101529.00
2019-02-14T19:15:16.768Z,101526.00
2019-02-14T19:17:45.902Z,101537.00
2019-02-14T19:20:15.063Z,101528.00
2019-02-14T19:22:44.188Z,101526.00
2019-02-14T19:25:13.396Z,101519.00
2019-02-14T19:27:42.848Z,101523.00
2019-02-14T19:30:13.053Z,101519.00
2019-02-14T19:32:42.587Z,101518.00
2019-02-14T19:35:11.821Z,101522.00
2019-02-14T19:37:40.958Z,101527.00
2019-02-14T19:40:10.112Z,101517.00
2019-02-14T19:42:39.263Z,101514.00
2019-02-14T19:45:11.857Z,101517.00
2019-02-14T19:47:41.261Z,101513.00
2019-02-14T19:50:11.865Z,101525.00
2019-02-14T19:52:41.301Z,101522.00
2019-02-14T19:55:10.577Z,101518.00
2019-02-14T19:57:39.719Z,101515.00
2019-02-14T20:00:16.813Z,101514.00
2019-02-14T20:02:46.269Z,101520.00
2019-02-14T20:05:15.970Z,101514.00
2019-02-14T20:07:45.407Z,101506.00
2019-02-14T20:10:15.023Z,101504.00
2019-02-14T20:12:44.422Z,101502.00
2019-02-14T20:15:18.036Z,101503.00
2019-02-14T20:17:47.185Z,101495.00
2019-02-14T20:20:16.340Z,101503.00
2019-02-14T20:22:45.757Z,101495.00
2019-02-14T20:25:18.062Z,101484.00
2019-02-14T20:27:47.245Z,101492.00
2019-02-14T20:30:16.711Z,101491.00
2019-02-14T20:32:46.121Z,101485.00
2019-02-14T20:35:15.395Z,101487.00
2019-02-14T20:37:44.864Z,101483.00
2019-02-14T20:40:14.138Z,101476.00
2019-02-14T20:42:43.374Z,101481.00
2019-02-14T20:45:13.925Z,101486.00
2019-02-14T20:47:43.354Z,101482.00
2019-02-14T20:50:13.850Z,101482.00
2019-02-14T20:52:43.098Z,101477.00
2019-02-14T20:55:18.091Z,101457.00
2019-02-14T20:57:47.692Z,101473.00
2019-02-14T21:00:21.846Z,101456.00
2019-02-14T21:02:51.373Z,101465.00
2019-02-14T21:05:20.822Z,101452.00
2019-02-14T21:07:51.248Z,101458.00
2019-02-14T21:10:20.651Z,101462.00
2019-02-14T21:12:49.892Z,101459.00
2019-02-14T21:15:19.360Z,101460.00
2019-02-14T21:17:48.862Z,101453.00
2019-02-14T21:20:18.953Z,101460.00
2019-02-14T21:22:48.104Z,101454.00
2019-02-14T21:25:22.560Z,101461.00
2019-02-14T21:27:48.440Z,101460.00
2019-02-14T21:30:19.181Z,101458.00
2019-02-14T21:32:48.500Z,101459.00
2019-02-14T21:35:18.214Z,101458.00
2019-02-14T21:37:47.574Z,101463.00
2019-02-14T21:40:18.405Z,101466.00
2019-02-14T21:42:47.558Z,101457.00
2019-02-14T21:45:17.422Z,101455.00
2019-02-14T21:47:46.586Z,101459.00
2019-02-14T21:50:16.182Z,101458.00
2019-02-14T21:52:45.377Z,101456.00
2019-02-14T21:55:15.402Z,101454.00
2019-02-14T21:57:44.682Z,101442.00
2019-02-14T22:00:16.950Z,101458.00
2019-02-14T22:02:46.567Z,101452.00
2019-02-14T22:05:15.761Z,101453.00
2019-02-14T22:07:44.882Z,101450.00
2019-02-14T22:10:14.178Z,101456.00
2019-02-14T22:12:44.337Z,101456.00
2019-02-14T22:15:19.399Z,101459.00
2019-02-14T22:17:48.768Z,101451.00
2019-02-14T22:20:17.925Z,101456.00
2019-02-14T22:22:47.089Z,101455.00
2019-02-14T22:25:16.333Z,101453.00
2019-02-14T22:27:45.505Z,101448.00
2019-02-14T22:30:18.495Z,101450.00
2019-02-14T22:32:47.702Z,101460.00
2019-02-14T22:35:17.140Z,101467.00
2019-02-14T22:37:46.557Z,101462.00
2019-02-14T22:40:15.801Z,101474.00
2019-02-14T22:42:47.516Z,101470.00
2019-02-14T22:45:16.731Z,101467.00
2019-02-14T22:47:46.080Z,101467.00
2019-02-14T22:50:15.461Z,101481.00
2019-02-14T22:52:44.785Z,101477.00
2019-02-14T22:55:16.769Z,101473.00
2019-02-14T22:57:46.254Z,101473.00
2019-02-14T23:00:37.667Z,101465.00
2019-02-14T23:03:07.691Z,101478.00
2019-02-14T23:05:37.182Z,101477.00
2019-02-14T23:08:06.315Z,101474.00
2019-02-14T23:10:35.731Z,101466.00
2019-02-14T23:13:04.909Z,101457.00
2019-02-14T23:15:34.371Z,101472.00
2019-02-14T23:18:03.776Z,101461.00
2019-02-14T23:20:33.257Z,101466.00
2019-02-14T23:23:02.665Z,101461.00
2019-02-14T23:25:32.064Z,101473.00
2019-02-14T23:28:01.276Z,101462.00
2019-02-14T23:30:30.720Z,101470.00
2019-02-14T23:33:00.101Z,101467.00
2019-02-14T23:35:29.320Z,101474.00
2019-02-14T23:37:58.744Z,101473.00
2019-02-14T23:40:28.252Z,101470.00
2019-02-14T23:43:04.460Z,101473.00
2019-02-14T23:45:28.475Z,101475.00
2019-02-14T23:47:57.635Z,101478.00
2019-02-14T23:50:27.099Z,101475.00
2019-02-14T23:52:56.270Z,101475.00
2019-02-14T23:55:25.415Z,101471.00
2019-02-14T23:57:54.776Z,101478.00
